sensor_id;sensor_type;location;lat;lon;timestamp;pressure;altitude;pressure_sealevel;temperature;humidity
21728;BME280;11026;50.560;17.852;2022-08-14T00:00:40;99293.53;;;20.12;100.00
21728;BME280;11026;50.560;17.852;2022-08-14T00:03:32;99293.41;;;20.13;100.00
21728;BME280;11026;50.560;17.852;2022-08-14T00:06:08;99294.50;;;20.11;100.00
21728;BME280;11026;50.560;17.852;2022-08-14T00:08:54;99292.00;;;20.19;100.00
21728;BME280;11026;50.560;17.852;2022-08-14T00:11:26;99290.31;;;20.18;100.00
21728;BME280;11026;50.560;17.852;2022-08-14T00:14:04;99283.09;;;20.19;100.00
21728;BME280;11026;50.560;17.852;2022-08-14T00:16:33;99271.94;;;20.23;100.00
21728;BME280;11026;50.560;17.852;2022-08-14T00:19:11;99278.56;;;20.19;100.00
21728;BME280;11026;50.560;17.852;2022-08-14T00:21:49;99280.81;;;20.14;100.00
21728;BME280;11026;50.560;17.852;2022-08-14T00:24:25;99271.47;;;20.08;100.00
21728;BME280;11026;50.560;17.852;2022-08-14T00:27:02;99275.72;;;20.11;100.00
21728;BME280;11026;50.560;17.852;2022-08-14T00:29:33;99280.78;;;20.04;100.00
21728;BME280;11026;50.560;17.852;2022-08-14T00:32:06;99272.84;;;20.03;100.00
21728;BME280;11026;50.560;17.852;2022-08-14T00:34:58;99265.78;;;20.02;100.00
21728;BME280;11026;50.560;17.852;2022-08-14T00:37:28;99267.47;;;20.03;100.00
21728;BME280;11026;50.560;17.852;2022-08-14T00:39:58;99269.47;;;20.01;100.00
21728;BME280;11026;50.560;17.852;2022-08-14T00:42:31;99263.34;;;19.99;100.00
21728;BME280;11026;50.560;17.852;2022-08-14T00:45:21;99261.81;;;19.96;100.00
21728;BME280;11026;50.560;17.852;2022-08-14T00:47:53;99268.53;;;19.90;100.00
21728;BME280;11026;50.560;17.852;2022-08-14T00:50:23;99263.66;;;19.96;100.00
21728;BME280;11026;50.560;17.852;2022-08-14T00:52:51;99261.06;;;19.94;100.00
21728;BME280;11026;50.560;17.852;2022-08-14T00:55:20;99259.50;;;19.92;100.00
21728;BME280;11026;50.560;17.852;2022-08-14T00:57:52;99263.19;;;19.90;100.00
21728;BME280;11026;50.560;17.852;2022-08-14T01:00:52;99262.19;;;19.92;100.00
21728;BME280;11026;50.560;17.852;2022-08-14T01:03:26;99257.94;;;19.89;100.00
21728;BME280;11026;50.560;17.852;2022-08-14T01:05:57;99252.44;;;19.90;100.00
21728;BME280;11026;50.560;17.852;2022-08-14T01:08:28;99250.22;;;19.96;100.00
21728;BME280;11026;50.560;17.852;2022-08-14T01:11:23;99248.84;;;20.01;100.00
21728;BME280;11026;50.560;17.852;2022-08-14T01:13:58;99251.34;;;19.93;100.00
21728;BME280;11026;50.560;17.852;2022-08-14T01:16:48;99258.94;;;19.88;100.00
21728;BME280;11026;50.560;17.852;2022-08-14T01:19:44;99259.78;;;19.88;100.00
21728;BME280;11026;50.560;17.852;2022-08-14T01:22:33;99251.34;;;19.93;100.00
21728;BME280;11026;50.560;17.852;2022-08-14T01:25:03;99255.38;;;19.87;100.00
21728;BME280;11026;50.560;17.852;2022-08-14T01:27:39;99259.19;;;19.85;100.00
21728;BME280;11026;50.560;17.852;2022-08-14T01:30:26;99263.72;;;19.84;100.00
21728;BME280;11026;50.560;17.852;2022-08-14T01:33:04;99260.75;;;19.87;100.00
21728;BME280;11026;50.560;17.852;2022-08-14T01:35:47;99259.66;;;19.90;100.00
21728;BME280;11026;50.560;17.852;2022-08-14T01:38:42;99260.06;;;19.85;100.00
21728;BME280;11026;50.560;17.852;2022-08-14T01:41:18;99261.75;;;19.86;100.00
21728;BME280;11026;50.560;17.852;2022-08-14T01:43:59;99251.66;;;19.79;100.00
21728;BME280;11026;50.560;17.852;2022-08-14T01:46:39;99253.75;;;19.75;100.00
21728;BME280;11026;50.560;17.852;2022-08-14T01:49:30;99249.56;;;19.82;100.00
21728;BME280;11026;50.560;17.852;2022-08-14T01:52:01;99243.31;;;19.72;100.00
21728;BME280;11026;50.560;17.852;2022-08-14T01:54:49;99239.91;;;19.70;100.00
21728;BME280;11026;50.560;17.852;2022-08-14T01:57:25;99245.41;;;19.69;100.00
21728;BME280;11026;50.560;17.852;2022-08-14T02:00:14;99247.81;;;19.72;100.00
21728;BME280;11026;50.560;17.852;2022-08-14T02:02:43;99243.31;;;19.72;100.00
21728;BME280;11026;50.560;17.852;2022-08-14T02:05:13;99242.72;;;19.69;100.00
21728;BME280;11026;50.560;17.852;2022-08-14T02:07:42;99248.09;;;19.69;100.00
21728;BME280;11026;50.560;17.852;2022-08-14T02:10:31;99244.28;;;19.71;100.00
21728;BME280;11026;50.560;17.852;2022-08-14T02:13:14;99243.31;;;19.72;100.00
21728;BME280;11026;50.560;17.852;2022-08-14T02:15:42;99234.78;;;19.67;100.00
21728;BME280;11026;50.560;17.852;2022-08-14T02:18:15;99236.53;;;19.68;100.00
21728;BME280;11026;50.560;17.852;2022-08-14T02:20:45;99225.50;;;19.71;100.00
21728;BME280;11026;50.560;17.852;2022-08-14T02:23:13;99229.72;;;19.64;100.00
21728;BME280;11026;50.560;17.852;2022-08-14T02:25:52;99222.50;;;19.64;100.00
21728;BME280;11026;50.560;17.852;2022-08-14T02:28:24;99226.03;;;19.65;100.00
21728;BME280;11026;50.560;17.852;2022-08-14T02:31:17;99225.78;;;19.68;100.00
21728;BME280;11026;50.560;17.852;2022-08-14T02:33:54;99228.06;;;19.73;100.00
21728;BME280;11026;50.560;17.852;2022-08-14T02:36:26;99223.66;;;19.72;100.00
21728;BME280;11026;50.560;17.852;2022-08-14T02:39:14;99220.94;;;19.62;100.00
21728;BME280;11026;50.560;17.852;2022-08-14T02:41:42;99215.44;;;19.63;100.00
21728;BME280;11026;50.560;17.852;2022-08-14T02:44:18;99215.56;;;19.62;100.00
21728;BME280;11026;50.560;17.852;2022-08-14T02:46:55;99213.84;;;19.61;100.00
21728;BME280;11026;50.560;17.852;2022-08-14T02:49:27;99211.56;;;19.56;100.00
21728;BME280;11026;50.560;17.852;2022-08-14T02:52:05;99212.94;;;19.51;100.00
21728;BME280;11026;50.560;17.852;2022-08-14T02:55:00;99207.31;;;19.54;100.00
21728;BME280;11026;50.560;17.852;2022-08-14T02:57:49;99202.44;;;19.48;100.00
21728;BME280;11026;50.560;17.852;2022-08-14T03:00:33;99200.50;;;19.50;100.00
21728;BME280;11026;50.560;17.852;2022-08-14T03:03:06;99195.94;;;19.40;100.00
21728;BME280;11026;50.560;17.852;2022-08-14T03:09:32;99194.03;;;19.52;100.00
21728;BME280;11026;50.560;17.852;2022-08-14T03:12:21;99192.66;;;19.58;100.00
21728;BME280;11026;50.560;17.852;2022-08-14T03:15:07;99198.53;;;19.52;100.00
21728;BME280;11026;50.560;17.852;2022-08-14T03:18:16;99197.38;;;19.45;100.00
21728;BME280;11026;50.560;17.852;2022-08-14T03:21:06;99192.84;;;19.45;100.00
21728;BME280;11026;50.560;17.852;2022-08-14T03:23:36;99203.44;;;19.47;100.00
21728;BME280;11026;50.560;17.852;2022-08-14T03:26:34;99197.03;;;19.59;100.00
21728;BME280;11026;50.560;17.852;2022-08-14T03:29:16;99196.31;;;19.57;100.00
21728;BME280;11026;50.560;17.852;2022-08-14T03:32:08;99201.44;;;19.60;100.00
21728;BME280;11026;50.560;17.852;2022-08-14T03:34:38;99195.19;;;19.59;100.00
21728;BME280;11026;50.560;17.852;2022-08-14T03:37:21;99195.47;;;19.56;100.00
21728;BME280;11026;50.560;17.852;2022-08-14T03:40:10;99201.22;;;19.52;100.00
21728;BME280;11026;50.560;17.852;2022-08-14T03:42:44;99197.75;;;19.61;100.00
21728;BME280;11026;50.560;17.852;2022-08-14T03:45:11;99190.16;;;19.66;100.00
21728;BME280;11026;50.560;17.852;2022-08-14T03:48:08;99195.19;;;19.59;100.00
21728;BME280;11026;50.560;17.852;2022-08-14T03:50:58;99187.28;;;19.58;100.00
21728;BME280;11026;50.560;17.852;2022-08-14T03:53:27;99192.91;;;19.55;100.00
21728;BME280;11026;50.560;17.852;2022-08-14T03:56:15;99199.47;;;19.62;100.00
21728;BME280;11026;50.560;17.852;2022-08-14T03:58:52;99206.53;;;19.63;100.00
21728;BME280;11026;50.560;17.852;2022-08-14T04:08:15;99192.84;;;19.45;100.00
21728;BME280;11026;50.560;17.852;2022-08-14T04:10:59;99199.06;;;19.46;100.00
21728;BME280;11026;50.560;17.852;2022-08-14T04:13:31;99195.41;;;19.47;100.00
21728;BME280;11026;50.560;17.852;2022-08-14T04:16:05;99190.03;;;19.47;100.00
21728;BME280;11026;50.560;17.852;2022-08-14T04:18:41;99191.78;;;19.57;100.00
21728;BME280;11026;50.560;17.852;2022-08-14T04:21:12;99200.94;;;19.55;100.00
21728;BME280;11026;50.560;17.852;2022-08-14T04:23:50;99189.47;;;19.64;100.00
21728;BME280;11026;50.560;17.852;2022-08-14T04:26:30;99186.50;;;19.67;100.00
21728;BME280;11026;50.560;17.852;2022-08-14T04:29:12;99192.91;;;19.55;100.00
21728;BME280;11026;50.560;17.852;2022-08-14T04:31:45;99183.69;;;19.69;100.00
21728;BME280;11026;50.560;17.852;2022-08-14T04:34:35;99190.16;;;19.66;100.00
21728;BME280;11026;50.560;17.852;2022-08-14T04:37:08;99189.38;;;19.75;100.00
21728;BME280;11026;50.560;17.852;2022-08-14T04:40:30;99185.91;;;19.63;100.00
21728;BME280;11026;50.560;17.852;2022-08-14T04:43:27;99191.16;;;19.65;100.00
21728;BME280;11026;50.560;17.852;2022-08-14T04:46:13;99185.00;;;19.74;100.00
21728;BME280;11026;50.560;17.852;2022-08-14T04:49:17;99181.97;;;19.88;100.00
21728;BME280;11026;50.560;17.852;2022-08-14T04:51:53;99190.28;;;19.85;100.00
21728;BME280;11026;50.560;17.852;2022-08-14T04:54:43;99180.97;;;19.89;100.00
21728;BME280;11026;50.560;17.852;2022-08-14T04:57:17;99183.13;;;19.96;100.00
21728;BME280;11026;50.560;17.852;2022-08-14T04:59:46;99174.06;;;19.97;100.00
21728;BME280;11026;50.560;17.852;2022-08-14T05:02:52;99170.81;;;20.03;100.00
21728;BME280;11026;50.560;17.852;2022-08-14T05:05:32;99172.56;;;20.04;100.00
21728;BME280;11026;50.560;17.852;2022-08-14T05:10:53;99165.50;;;20.12;100.00
21728;BME280;11026;50.560;17.852;2022-08-14T05:13:32;99177.34;;;20.10;100.00
21728;BME280;11026;50.560;17.852;2022-08-14T05:16:21;99172.25;;;20.07;100.00
21728;BME280;11026;50.560;17.852;2022-08-14T05:19:22;99176.34;;;20.11;100.00
21728;BME280;11026;50.560;17.852;2022-08-14T05:22:08;99175.66;;;20.09;100.00
21728;BME280;11026;50.560;17.852;2022-08-14T05:24:53;99177.53;;;20.18;100.00
21728;BME280;11026;50.560;17.852;2022-08-14T05:27:32;99170.28;;;20.09;100.00
21728;BME280;11026;50.560;17.852;2022-08-14T05:30:09;99170.47;;;20.17;100.00
21728;BME280;11026;50.560;17.852;2022-08-14T05:32:44;99162.94;;;20.11;100.00
21728;BME280;11026;50.560;17.852;2022-08-14T05:35:19;99166.34;;;20.13;100.00
21728;BME280;11026;50.560;17.852;2022-08-14T05:37:47;99158.88;;;20.17;100.00
21728;BME280;11026;50.560;17.852;2022-08-14T05:40:15;99159.88;;;20.16;100.00
21728;BME280;11026;50.560;17.852;2022-08-14T05:42:52;99158.31;;;20.23;100.00
21728;BME280;11026;50.560;17.852;2022-08-14T05:45:22;99153.09;;;20.21;100.00
21728;BME280;11026;50.560;17.852;2022-08-14T05:47:50;99156.19;;;20.26;100.00
21728;BME280;11026;50.560;17.852;2022-08-14T05:50:23;99150.56;;;20.29;100.00
21728;BME280;11026;50.560;17.852;2022-08-14T05:52:57;99146.28;;;20.27;100.00
21728;BME280;11026;50.560;17.852;2022-08-14T05:58:28;99149.13;;;20.35;100.00
21728;BME280;11026;50.560;17.852;2022-08-14T06:01:06;99143.78;;;20.45;100.00
21728;BME280;11026;50.560;17.852;2022-08-14T06:03:58;99140.16;;;20.55;100.00
21728;BME280;11026;50.560;17.852;2022-08-14T06:06:26;99141.84;;;20.66;100.00
21728;BME280;11026;50.560;17.852;2022-08-14T06:09:17;99131.25;;;20.74;100.00
21728;BME280;11026;50.560;17.852;2022-08-14T06:11:51;99132.50;;;20.90;100.00
21728;BME280;11026;50.560;17.852;2022-08-14T06:14:19;99120.63;;;20.92;100.00
21728;BME280;11026;50.560;17.852;2022-08-14T06:16:56;99125.97;;;21.02;100.00
21728;BME280;11026;50.560;17.852;2022-08-14T06:19:27;99126.81;;;21.12;100.00
21728;BME280;11026;50.560;17.852;2022-08-14T06:22:02;99115.47;;;21.28;100.00
21728;BME280;11026;50.560;17.852;2022-08-14T06:24:38;99125.66;;;21.34;100.00
21728;BME280;11026;50.560;17.852;2022-08-14T06:27:13;99124.25;;;21.40;100.00
21728;BME280;11026;50.560;17.852;2022-08-14T06:29:47;99126.50;;;21.44;100.00
21728;BME280;11026;50.560;17.852;2022-08-14T06:32:24;99133.28;;;21.48;100.00
21728;BME280;11026;50.560;17.852;2022-08-14T06:35:06;99124.22;;;21.49;100.00
21728;BME280;11026;50.560;17.852;2022-08-14T06:37:47;99122.50;;;21.48;100.00
21728;BME280;11026;50.560;17.852;2022-08-14T06:40:23;99122.97;;;21.44;100.00
21728;BME280;11026;50.560;17.852;2022-08-14T06:42:59;99125.59;;;21.53;100.00
21728;BME280;11026;50.560;17.852;2022-08-14T06:45:30;99119.34;;;21.63;100.00
21728;BME280;11026;50.560;17.852;2022-08-14T06:48:01;99121.59;;;21.67;100.00
21728;BME280;11026;50.560;17.852;2022-08-14T06:50:44;99124.59;;;21.64;100.00
21728;BME280;11026;50.560;17.852;2022-08-14T06:53:20;99121.63;;;21.57;100.00
21728;BME280;11026;50.560;17.852;2022-08-14T06:56:05;99131.09;;;21.61;100.00
21728;BME280;11026;50.560;17.852;2022-08-14T06:58:34;99122.50;;;21.58;100.00
21728;BME280;11026;50.560;17.852;2022-08-14T07:01:03;99130.16;;;21.53;100.00
21728;BME280;11026;50.560;17.852;2022-08-14T07:03:55;99121.38;;;21.51;100.00
21728;BME280;11026;50.560;17.852;2022-08-14T07:07:05;99119.38;;;21.53;100.00
21728;BME280;11026;50.560;17.852;2022-08-14T07:09:36;99117.47;;;21.35;100.00
21728;BME280;11026;50.560;17.852;2022-08-14T07:12:17;99121.16;;;21.34;100.00
21728;BME280;11026;50.560;17.852;2022-08-14T07:15:05;99121.53;;;21.30;100.00
21728;BME280;11026;50.560;17.852;2022-08-14T07:17:43;99114.06;;;21.33;100.00
21728;BME280;11026;50.560;17.852;2022-08-14T07:20:13;99118.72;;;21.31;100.00
21728;BME280;11026;50.560;17.852;2022-08-14T07:23:03;99128.06;;;21.37;100.00
21728;BME280;11026;50.560;17.852;2022-08-14T07:25:39;99114.91;;;21.34;100.00
21728;BME280;11026;50.560;17.852;2022-08-14T07:28:26;99118.00;;;21.29;100.00
21728;BME280;11026;50.560;17.852;2022-08-14T07:31:00;99114.06;;;21.24;100.00
21728;BME280;11026;50.560;17.852;2022-08-14T07:33:39;99116.75;;;21.33;100.00
21728;BME280;11026;50.560;17.852;2022-08-14T07:36:17;99119.56;;;21.22;100.00
21728;BME280;11026;50.560;17.852;2022-08-14T07:38:58;99112.22;;;21.24;100.00
21728;BME280;11026;50.560;17.852;2022-08-14T07:41:27;99114.34;;;21.21;100.00
21728;BME280;11026;50.560;17.852;2022-08-14T07:44:01;99122.53;;;21.29;100.00
21728;BME280;11026;50.560;17.852;2022-08-14T07:46:48;99111.91;;;21.47;100.00
21728;BME280;11026;50.560;17.852;2022-08-14T07:49:16;99108.22;;;21.48;100.00
21728;BME280;11026;50.560;17.852;2022-08-14T07:51:48;99115.41;;;21.57;100.00
21728;BME280;11026;50.560;17.852;2022-08-14T07:54:17;99117.97;;;21.58;100.00
21728;BME280;11026;50.560;17.852;2022-08-14T07:56:58;99110.00;;;21.67;100.00
21728;BME280;11026;50.560;17.852;2022-08-14T07:59:41;99122.94;;;21.81;100.00
21728;BME280;11026;50.560;17.852;2022-08-14T08:02:21;99117.56;;;21.81;100.00
21728;BME280;11026;50.560;17.852;2022-08-14T08:04:59;99121.41;;;21.78;100.00
21728;BME280;11026;50.560;17.852;2022-08-14T08:07:34;99115.31;;;21.76;100.00
21728;BME280;11026;50.560;17.852;2022-08-14T08:10:12;99126.94;;;21.77;100.00
21728;BME280;11026;50.560;17.852;2022-08-14T08:13:19;99121.09;;;21.81;100.00
21728;BME280;11026;50.560;17.852;2022-08-14T08:15:56;99126.09;;;21.76;100.00
21728;BME280;11026;50.560;17.852;2022-08-14T08:18:24;99118.09;;;21.84;100.00
21728;BME280;11026;50.560;17.852;2022-08-14T08:20:55;99121.81;;;21.83;100.00
21728;BME280;11026;50.560;17.852;2022-08-14T08:23:28;99125.34;;;21.84;100.00
21728;BME280;11026;50.560;17.852;2022-08-14T08:26:09;99121.09;;;21.81;100.00
21728;BME280;11026;50.560;17.852;2022-08-14T08:28:36;99109.69;;;21.97;100.00
21728;BME280;11026;50.560;17.852;2022-08-14T08:31:11;99108.00;;;22.24;100.00
21728;BME280;11026;50.560;17.852;2022-08-14T08:33:41;99108.47;;;22.37;100.00
21728;BME280;11026;50.560;17.852;2022-08-14T08:36:18;99112.25;;;22.44;99.71
21728;BME280;11026;50.560;17.852;2022-08-14T08:38:48;99099.94;;;22.42;98.94
21728;BME280;11026;50.560;17.852;2022-08-14T08:41:47;99104.69;;;22.48;99.43
21728;BME280;11026;50.560;17.852;2022-08-14T08:44:30;99099.63;;;22.45;99.02
21728;BME280;11026;50.560;17.852;2022-08-14T08:47:01;99107.88;;;22.43;99.48
21728;BME280;11026;50.560;17.852;2022-08-14T08:49:40;99105.16;;;22.43;98.43
21728;BME280;11026;50.560;17.852;2022-08-14T08:52:26;99102.84;;;22.48;98.50
21728;BME280;11026;50.560;17.852;2022-08-14T08:55:00;99103.78;;;22.39;98.50
21728;BME280;11026;50.560;17.852;2022-08-14T08:57:33;99106.84;;;22.26;100.00
21728;BME280;11026;50.560;17.852;2022-08-14T09:00:15;99103.94;;;22.38;100.00
21728;BME280;11026;50.560;17.852;2022-08-14T09:02:57;99111.03;;;22.39;99.16
21728;BME280;11026;50.560;17.852;2022-08-14T09:05:26;99102.63;;;22.42;98.74
21728;BME280;11026;50.560;17.852;2022-08-14T09:08:08;99105.88;;;22.45;98.09
21728;BME280;11026;50.560;17.852;2022-08-14T09:10:56;99091.84;;;22.59;97.33
21728;BME280;11026;50.560;17.852;2022-08-14T09:13:24;99083.75;;;22.77;97.12
21728;BME280;11026;50.560;17.852;2022-08-14T09:16:01;99091.41;;;23.08;96.83
21728;BME280;11026;50.560;17.852;2022-08-14T09:18:51;99085.22;;;23.42;94.78
21728;BME280;11026;50.560;17.852;2022-08-14T09:21:28;99072.84;;;23.65;92.38
21728;BME280;11026;50.560;17.852;2022-08-14T09:23:57;99076.69;;;23.89;89.55
21728;BME280;11026;50.560;17.852;2022-08-14T09:26:46;99077.41;;;24.07;88.70
21728;BME280;11026;50.560;17.852;2022-08-14T09:29:16;99076.59;;;24.23;88.30
21728;BME280;11026;50.560;17.852;2022-08-14T09:32:21;99077.13;;;24.26;87.15
21728;BME280;11026;50.560;17.852;2022-08-14T09:35:23;99071.63;;;24.44;87.44
21728;BME280;11026;50.560;17.852;2022-08-14T09:44:44;99066.03;;;24.78;83.95
21728;BME280;11026;50.560;17.852;2022-08-14T09:47:17;99069.75;;;24.94;83.74
21728;BME280;11026;50.560;17.852;2022-08-14T09:49:49;99068.56;;;25.13;82.58
21728;BME280;11026;50.560;17.852;2022-08-14T09:52:24;99069.03;;;25.33;80.57
21728;BME280;11026;50.560;17.852;2022-08-14T09:55:00;99064.56;;;25.56;80.35
21728;BME280;11026;50.560;17.852;2022-08-14T09:57:30;99056.38;;;25.81;79.78
21728;BME280;11026;50.560;17.852;2022-08-14T10:00:11;99059.13;;;26.04;77.38
21728;BME280;11026;50.560;17.852;2022-08-14T10:03:00;99054.34;;;26.37;77.69
21728;BME280;11026;50.560;17.852;2022-08-14T10:05:34;99052.50;;;26.60;76.28
21728;BME280;11026;50.560;17.852;2022-08-14T10:08:27;99048.53;;;26.48;74.83
21728;BME280;11026;50.560;17.852;2022-08-14T10:11:28;99043.91;;;26.03;76.56
21728;BME280;11026;50.560;17.852;2022-08-14T10:14:18;99049.91;;;25.90;76.84
21728;BME280;11026;50.560;17.852;2022-08-14T10:17:03;99044.00;;;25.86;76.92
21728;BME280;11026;50.560;17.852;2022-08-14T10:19:33;99042.19;;;25.79;76.59
21728;BME280;11026;50.560;17.852;2022-08-14T10:22:30;99042.19;;;25.79;77.21
21728;BME280;11026;50.560;17.852;2022-08-14T10:25:18;99042.19;;;25.79;78.03
21728;BME280;11026;50.560;17.852;2022-08-14T10:28:00;99039.78;;;25.84;77.78
21728;BME280;11026;50.560;17.852;2022-08-14T10:30:33;99036.72;;;25.87;77.59
21728;BME280;11026;50.560;17.852;2022-08-14T10:33:04;99041.34;;;25.78;77.41
21728;BME280;11026;50.560;17.852;2022-08-14T10:35:40;99041.09;;;25.88;78.57
21728;BME280;11026;50.560;17.852;2022-08-14T10:38:30;99033.28;;;25.93;77.42
21728;BME280;11026;50.560;17.852;2022-08-14T10:41:11;99038.69;;;25.93;77.19
21728;BME280;11026;50.560;17.852;2022-08-14T10:43:44;99035.69;;;25.88;77.07
21728;BME280;11026;50.560;17.852;2022-08-14T10:49:33;99035.34;;;25.91;77.15
21728;BME280;11026;50.560;17.852;2022-08-14T10:52:08;99048.84;;;25.99;77.35
21728;BME280;11026;50.560;17.852;2022-08-14T10:54:51;99036.72;;;26.18;76.23
21728;BME280;11026;50.560;17.852;2022-08-14T10:57:26;99040.75;;;26.45;75.72
21728;BME280;11026;50.560;17.852;2022-08-14T11:00:10;99036.97;;;26.54;73.30
21728;BME280;11026;50.560;17.852;2022-08-14T11:03:00;99032.47;;;26.84;73.30
21728;BME280;11026;50.560;17.852;2022-08-14T11:05:42;99036.16;;;27.06;73.12
21728;BME280;11026;50.560;17.852;2022-08-14T11:08:15;99035.97;;;27.08;72.00
21728;BME280;11026;50.560;17.852;2022-08-14T11:11:04;99039.91;;;27.05;71.08
21728;BME280;11026;50.560;17.852;2022-08-14T11:13:42;99034.97;;;27.09;70.13
21728;BME280;11026;50.560;17.852;2022-08-14T11:16:13;99027.47;;;27.11;70.45
21728;BME280;11026;50.560;17.852;2022-08-14T11:18:46;99035.41;;;26.97;68.92
21728;BME280;11026;50.560;17.852;2022-08-14T11:21:38;99032.59;;;27.06;69.85
21728;BME280;11026;50.560;17.852;2022-08-14T11:24:16;99032.00;;;27.33;70.03
21728;BME280;11026;50.560;17.852;2022-08-14T11:27:09;99025.22;;;27.59;69.44
21728;BME280;11026;50.560;17.852;2022-08-14T11:29:45;99021.19;;;27.69;67.96
21728;BME280;11026;50.560;17.852;2022-08-14T11:32:29;99014.38;;;27.74;67.83
21728;BME280;11026;50.560;17.852;2022-08-14T11:35:00;99010.13;;;27.71;67.52
21728;BME280;11026;50.560;17.852;2022-08-14T11:37:31;99013.34;;;27.75;66.66
21728;BME280;11026;50.560;17.852;2022-08-14T11:40:24;99017.25;;;27.87;68.09
21728;BME280;11026;50.560;17.852;2022-08-14T11:42:55;99008.19;;;27.80;67.24
21728;BME280;11026;50.560;17.852;2022-08-14T11:45:36;99014.47;;;27.65;67.18
21728;BME280;11026;50.560;17.852;2022-08-14T11:48:22;99010.34;;;27.55;69.15
21728;BME280;11026;50.560;17.852;2022-08-14T11:51:19;99001.13;;;27.70;70.37
21728;BME280;11026;50.560;17.852;2022-08-14T11:54:04;99011.56;;;27.82;70.60
21728;BME280;11026;50.560;17.852;2022-08-14T11:56:43;99000.09;;;27.71;70.48
21728;BME280;11026;50.560;17.852;2022-08-14T11:59:19;99004.09;;;28.05;72.34
21728;BME280;11026;50.560;17.852;2022-08-14T12:02:15;99014.00;;;28.77;70.98
21728;BME280;11026;50.560;17.852;2022-08-14T12:05:04;99012.50;;;29.65;66.61
21728;BME280;11026;50.560;17.852;2022-08-14T12:07:35;99013.56;;;30.19;64.79
21728;BME280;11026;50.560;17.852;2022-08-14T12:10:18;99009.38;;;30.36;61.31
21728;BME280;11026;50.560;17.852;2022-08-14T12:13:18;99015.66;;;30.37;61.41
21728;BME280;11026;50.560;17.852;2022-08-14T12:15:57;99004.75;;;30.24;60.83
21728;BME280;11026;50.560;17.852;2022-08-14T12:18:39;99002.16;;;30.02;62.64
21728;BME280;11026;50.560;17.852;2022-08-14T12:21:21;98998.72;;;29.80;62.30
21728;BME280;11026;50.560;17.852;2022-08-14T12:24:09;98996.00;;;29.74;62.84
21728;BME280;11026;50.560;17.852;2022-08-14T12:27:08;98989.69;;;29.73;60.82
21728;BME280;11026;50.560;17.852;2022-08-14T12:29:49;98986.47;;;29.22;60.23
21728;BME280;11026;50.560;17.852;2022-08-14T12:32:18;98990.41;;;29.12;61.11
21728;BME280;11026;50.560;17.852;2022-08-14T12:34:52;98983.53;;;29.16;60.72
21728;BME280;11026;50.560;17.852;2022-08-14T12:37:32;98983.19;;;29.33;61.27
21728;BME280;11026;50.560;17.852;2022-08-14T12:40:15;98980.69;;;29.31;61.37
21728;BME280;11026;50.560;17.852;2022-08-14T12:43:06;98977.81;;;29.46;59.75
21728;BME280;11026;50.560;17.852;2022-08-14T12:45:45;98973.75;;;29.29;60.51
21728;BME280;11026;50.560;17.852;2022-08-14T12:48:42;98968.06;;;29.58;60.14
21728;BME280;11026;50.560;17.852;2022-08-14T12:51:21;98960.66;;;29.52;58.39
21728;BME280;11026;50.560;17.852;2022-08-14T12:53:55;98958.50;;;28.72;60.58
21728;BME280;11026;50.560;17.852;2022-08-14T12:56:31;98959.81;;;28.54;62.39
21728;BME280;11026;50.560;17.852;2022-08-14T12:59:03;98965.38;;;28.67;61.43
21728;BME280;11026;50.560;17.852;2022-08-14T13:01:34;98966.03;;;28.48;60.35
21728;BME280;11026;50.560;17.852;2022-08-14T13:04:21;98973.94;;;28.00;64.60
21728;BME280;11026;50.560;17.852;2022-08-14T13:06:52;98965.19;;;27.68;64.79
21728;BME280;11026;50.560;17.852;2022-08-14T13:09:20;98968.75;;;28.05;65.28
21728;BME280;11026;50.560;17.852;2022-08-14T13:12:04;98967.56;;;27.27;65.54
21728;BME280;11026;50.560;17.852;2022-08-14T13:14:51;98960.38;;;27.19;66.60
21728;BME280;11026;50.560;17.852;2022-08-14T13:17:26;98956.78;;;27.49;64.21
21728;BME280;11026;50.560;17.852;2022-08-14T13:19:57;98946.34;;;28.46;61.70
21728;BME280;11026;50.560;17.852;2022-08-14T13:22:27;98946.22;;;28.33;59.81
21728;BME280;11026;50.560;17.852;2022-08-14T13:25:04;98950.06;;;27.96;60.79
21728;BME280;11026;50.560;17.852;2022-08-14T13:27:32;98948.91;;;28.82;60.33
21728;BME280;11026;50.560;17.852;2022-08-14T13:30:09;98943.50;;;28.11;62.84
21728;BME280;11026;50.560;17.852;2022-08-14T13:32:50;98933.13;;;28.22;63.85
21728;BME280;11026;50.560;17.852;2022-08-14T13:35:20;98925.69;;;28.80;61.74
21728;BME280;11026;50.560;17.852;2022-08-14T13:37:50;98925.28;;;28.55;60.89
21728;BME280;11026;50.560;17.852;2022-08-14T13:40:22;98915.84;;;28.29;62.90
21728;BME280;11026;50.560;17.852;2022-08-14T13:42:54;98911.75;;;28.18;63.45
21728;BME280;11026;50.560;17.852;2022-08-14T13:45:24;98896.09;;;28.42;62.85
21728;BME280;11026;50.560;17.852;2022-08-14T13:48:22;98895.19;;;29.32;60.77
21728;BME280;11026;50.560;17.852;2022-08-14T13:51:05;98899.13;;;29.84;57.33
21728;BME280;11026;50.560;17.852;2022-08-14T13:53:48;98901.72;;;30.52;57.56
21728;BME280;11026;50.560;17.852;2022-08-14T13:56:39;98900.19;;;30.96;56.81
21728;BME280;11026;50.560;17.852;2022-08-14T13:59:09;98908.53;;;31.15;57.92
21728;BME280;11026;50.560;17.852;2022-08-14T14:01:42;98909.38;;;31.15;57.76
21728;BME280;11026;50.560;17.852;2022-08-14T14:04:47;98904.84;;;30.89;58.89
21728;BME280;11026;50.560;17.852;2022-08-14T14:07:19;98897.50;;;30.63;60.22
21728;BME280;11026;50.560;17.852;2022-08-14T14:09:56;98901.50;;;30.21;61.08
21728;BME280;11026;50.560;17.852;2022-08-14T14:12:48;98898.91;;;29.73;62.19